Time;durP1;ratioP1;P1;durP2;ratioP2;P2;SDS_P1;SDS_P2;PMS_P1;PMS_P2;Temp;Humidity;BMP_temperature;BMP_pressure;BME280_temperature;BME280_humidity;BME280_pressure;Samples;Min_cycle;Max_cycle;Signal;HPM_P1;HPM_P2
2021/10/19 00:00:32;;;;;;;14.20;9.88;;;14.70;99.90;;;;;;5116611;27;20019;-68
2021/10/19 00:02:57;;;;;;;12.90;9.70;;;14.70;99.90;;;;;;5133724;27;20488;-69
2021/10/19 00:05:23;;;;;;;14.38;9.43;;;14.70;99.90;;;;;;5133853;27;20038;-71
2021/10/19 00:07:50;;;;;;;22.67;10.88;;;14.70;99.90;;;;;;5117075;27;20067;-74
2021/10/19 00:10:16;;;;;;;12.25;9.82;;;14.70;99.90;;;;;;5116641;27;20034;-72
2021/10/19 00:12:42;;;;;;;17.85;10.93;;;14.70;99.90;;;;;;5116451;27;20094;-72
2021/10/19 00:15:09;;;;;;;14.48;9.70;;;14.70;99.90;;;;;;5116464;27;20038;-69
2021/10/19 00:17:39;;;;;;;14.95;11.15;;;14.70;99.90;;;;;;5133880;27;20050;-68
2021/10/19 00:20:06;;;;;;;15.50;10.18;;;14.70;99.90;;;;;;5133889;27;20027;-67
2021/10/19 00:22:32;;;;;;;16.20;10.93;;;14.70;99.90;;;;;;5133394;27;20027;-70
2021/10/19 00:24:57;;;;;;;13.38;9.90;;;14.70;99.90;;;;;;5116334;27;20031;-69
2021/10/19 00:27:23;;;;;;;15.88;10.57;;;14.60;99.90;;;;;;5116462;27;20469;-74
2021/10/19 00:29:49;;;;;;;14.43;10.32;;;14.70;99.90;;;;;;5133480;27;20042;-68
2021/10/19 00:32:15;;;;;;;16.75;10.60;;;14.80;99.90;;;;;;5133389;27;20011;-71
2021/10/19 00:34:40;;;;;;;15.65;9.40;;;14.80;99.90;;;;;;5133512;27;20080;-71
2021/10/19 00:37:06;;;;;;;19.27;10.00;;;14.70;99.90;;;;;;5116275;27;20546;-71
2021/10/19 00:39:31;;;;;;;13.88;10.18;;;14.70;99.90;;;;;;5133181;27;20122;-67
2021/10/19 00:41:57;;;;;;;16.40;10.07;;;14.70;99.90;;;;;;5133145;27;20024;-66
2021/10/19 00:44:23;;;;;;;15.13;10.02;;;14.60;99.90;;;;;;5134330;27;20049;-66
2021/10/19 00:46:49;;;;;;;15.48;11.68;;;14.60;99.90;;;;;;5134319;27;20034;-66
2021/10/19 00:49:14;;;;;;;14.80;10.52;;;14.50;99.90;;;;;;5115904;27;20469;-64
2021/10/19 00:51:40;;;;;;;15.68;10.40;;;14.50;99.90;;;;;;5132955;27;20473;-64
2021/10/19 00:54:07;;;;;;;16.15;10.38;;;14.60;99.90;;;;;;5134331;27;20030;-65
2021/10/19 00:56:36;;;;;;;13.75;9.95;;;14.50;99.90;;;;;;5133049;27;20015;-66
2021/10/19 00:59:01;;;;;;;14.60;10.00;;;14.50;99.90;;;;;;5132909;28;20020;-66
2021/10/19 01:01:27;;;;;;;15.98;10.73;;;14.50;99.90;;;;;;5132810;28;20042;-65
2021/10/19 01:03:52;;;;;;;12.75;11.00;;;14.50;99.90;;;;;;5132777;28;20016;-66
2021/10/19 01:06:18;;;;;;;14.10;11.25;;;14.50;99.90;;;;;;5115826;28;20392;-66
2021/10/19 01:08:44;;;;;;;13.95;9.82;;;14.50;99.90;;;;;;5132649;28;20035;-65
2021/10/19 01:11:09;;;;;;;13.82;9.73;;;14.50;99.90;;;;;;5132817;28;20022;-66
2021/10/19 01:13:35;;;;;;;13.88;11.30;;;14.50;99.90;;;;;;5132756;27;20024;-66
2021/10/19 01:16:06;;;;;;;14.70;9.55;;;14.50;99.90;;;;;;5115610;28;20019;-67
2021/10/19 01:18:33;;;;;;;17.45;9.85;;;14.50;99.90;;;;;;5115680;28;20023;-66
2021/10/19 01:20:58;;;;;;;13.93;10.13;;;14.40;99.90;;;;;;5132710;28;20019;-66
2021/10/19 01:23:24;;;;;;;13.35;10.35;;;14.50;99.90;;;;;;5132625;28;20110;-66
2021/10/19 01:25:49;;;;;;;14.70;9.15;;;14.50;99.90;;;;;;5115314;28;20493;-67
2021/10/19 01:28:15;;;;;;;13.48;9.75;;;14.60;99.90;;;;;;5115354;28;20031;-67
2021/10/19 01:30:45;;;;;;;10.57;8.77;;;14.60;99.90;;;;;;5115481;28;20027;-67
2021/10/19 01:33:11;;;;;;;12.90;9.70;;;14.70;99.90;;;;;;5115845;28;20020;-67
2021/10/19 01:35:42;;;;;;;15.57;10.32;;;14.60;99.90;;;;;;5115381;28;20039;-68
2021/10/19 01:38:15;;;;;;;11.32;9.45;;;14.70;99.90;;;;;;5132555;28;20028;-68
2021/10/19 01:40:40;;;;;;;12.85;9.48;;;14.60;99.90;;;;;;5115346;28;20026;-66
2021/10/19 01:43:11;;;;;;;11.98;9.80;;;14.60;99.90;;;;;;5132527;27;20028;-67
2021/10/19 01:45:36;;;;;;;13.38;9.93;;;14.60;99.90;;;;;;5115198;28;20027;-67
2021/10/19 01:48:02;;;;;;;16.88;10.32;;;14.50;99.90;;;;;;5115225;28;20023;-68
2021/10/19 01:50:28;;;;;;;13.77;9.25;;;14.60;99.90;;;;;;5132338;28;20026;-68
2021/10/19 01:52:53;;;;;;;13.60;9.68;;;14.60;99.90;;;;;;5115201;28;20027;-67
2021/10/19 01:55:19;;;;;;;14.32;10.45;;;14.60;99.90;;;;;;5133659;27;20016;-68
2021/10/19 01:57:45;;;;;;;13.90;10.57;;;14.60;99.90;;;;;;5132681;28;20069;-71
2021/10/19 02:00:11;;;;;;;17.40;11.70;;;14.60;99.90;;;;;;5132202;27;20035;-74
2021/10/19 02:02:38;;;;;;;13.23;10.80;;;14.60;99.90;;;;;;5133630;27;20031;-70
2021/10/19 02:05:04;;;;;;;18.05;11.30;;;14.60;99.90;;;;;;5133208;27;20016;-69
2021/10/19 02:07:29;;;;;;;14.60;11.00;;;14.60;99.90;;;;;;5118939;27;20034;-69
2021/10/19 02:09:55;;;;;;;13.90;12.00;;;14.70;99.90;;;;;;5135973;27;20035;-69
2021/10/19 02:12:20;;;;;;;14.18;11.25;;;14.70;99.90;;;;;;5137375;27;20027;-67
2021/10/19 02:14:46;;;;;;;14.38;12.27;;;14.70;99.90;;;;;;5118842;27;20092;-67
2021/10/19 02:17:12;;;;;;;13.35;11.00;;;14.70;99.90;;;;;;5135738;27;20351;-67
2021/10/19 02:19:37;;;;;;;15.00;12.52;;;14.80;99.90;;;;;;5137136;27;20035;-67
2021/10/19 02:22:03;;;;;;;17.83;12.50;;;14.70;99.90;;;;;;5118691;27;20034;-67
2021/10/19 02:24:29;;;;;;;14.73;12.30;;;14.80;99.90;;;;;;5118549;27;20415;-67
2021/10/19 02:26:54;;;;;;;18.27;12.07;;;14.80;99.90;;;;;;5135509;27;20059;-68
2021/10/19 02:29:20;;;;;;;16.73;12.80;;;14.80;99.90;;;;;;5135732;27;20063;-68
2021/10/19 02:31:46;;;;;;;15.13;12.10;;;14.80;99.90;;;;;;5135634;27;20389;-68
2021/10/19 02:34:12;;;;;;;15.88;12.43;;;14.80;99.90;;;;;;5118563;27;20041;-67
2021/10/19 02:36:38;;;;;;;15.70;12.65;;;14.90;99.90;;;;;;5135666;27;20094;-68
2021/10/19 02:39:06;;;;;;;17.48;13.15;;;15.00;99.90;;;;;;5118539;27;20027;-68
2021/10/19 02:41:34;;;;;;;17.58;13.23;;;14.90;99.90;;;;;;5137145;27;20030;-67
2021/10/19 02:44:00;;;;;;;15.88;12.77;;;14.90;99.90;;;;;;5136032;27;20504;-66
2021/10/19 02:46:26;;;;;;;15.88;13.35;;;14.90;99.90;;;;;;5118268;27;20051;-69
2021/10/19 02:48:52;;;;;;;16.38;13.60;;;14.90;99.90;;;;;;5135784;27;20106;-73
2021/10/19 02:51:18;;;;;;;16.50;12.40;;;14.90;99.90;;;;;;5138291;27;20026;-72
2021/10/19 02:53:44;;;;;;;18.15;13.60;;;14.90;99.90;;;;;;5122868;27;20053;-73
2021/10/19 02:56:09;;;;;;;16.42;12.80;;;14.90;99.90;;;;;;5139507;27;20035;-75
2021/10/19 02:58:35;;;;;;;16.95;13.00;;;14.90;99.90;;;;;;5138769;27;20091;-76
2021/10/19 03:01:01;;;;;;;15.68;12.57;;;14.90;99.90;;;;;;5138165;27;20074;-73
2021/10/19 03:03:26;;;;;;;15.50;12.15;;;14.90;99.90;;;;;;5139357;27;20023;-74
2021/10/19 03:05:52;;;;;;;20.10;12.90;;;14.90;99.90;;;;;;5120685;27;20027;-74
2021/10/19 03:08:18;;;;;;;16.98;13.02;;;14.90;99.90;;;;;;5119381;27;20019;-76
2021/10/19 03:10:43;;;;;;;16.48;13.18;;;14.90;99.90;;;;;;5120038;27;20074;-74
2021/10/19 03:13:09;;;;;;;15.27;12.00;;;15.00;99.90;;;;;;5118426;27;20019;-74
2021/10/19 03:15:34;;;;;;;17.08;12.88;;;15.00;99.90;;;;;;5101234;27;20079;-74
2021/10/19 03:18:00;;;;;;;19.58;14.43;;;15.00;99.90;;;;;;5133995;27;20016;-73
2021/10/19 03:20:25;;;;;;;15.20;12.70;;;15.00;99.90;;;;;;5135079;27;20015;-71
2021/10/19 03:22:51;;;;;;;18.35;13.35;;;15.00;99.90;;;;;;5118155;27;20094;-73
2021/10/19 03:25:17;;;;;;;14.00;12.18;;;15.00;99.90;;;;;;5117520;27;20023;-74
2021/10/19 03:27:42;;;;;;;18.92;14.20;;;15.00;99.90;;;;;;5135606;27;20031;-71
2021/10/19 03:30:08;;;;;;;18.05;13.77;;;15.00;99.90;;;;;;5117807;27;20031;-74
2021/10/19 03:32:34;;;;;;;14.88;13.00;;;15.10;99.90;;;;;;5117792;27;20031;-74
2021/10/19 03:35:00;;;;;;;15.70;13.73;;;15.20;99.90;;;;;;5117645;27;20031;-74
2021/10/19 03:37:26;;;;;;;15.45;12.05;;;15.10;99.90;;;;;;5117502;27;20023;-70
2021/10/19 03:39:51;;;;;;;14.35;12.82;;;15.10;99.90;;;;;;5134597;27;20492;-74
2021/10/19 03:42:17;;;;;;;14.20;12.70;;;15.20;99.90;;;;;;5134490;27;20035;-75
2021/10/19 03:44:43;;;;;;;14.48;12.85;;;15.20;99.90;;;;;;5134477;27;20022;-77
2021/10/19 03:47:08;;;;;;;13.90;12.48;;;15.20;99.90;;;;;;5134425;27;20028;-74
2021/10/19 03:49:34;;;;;;;16.58;14.25;;;15.20;99.90;;;;;;5100349;27;20493;-74
2021/10/19 03:52:00;;;;;;;14.48;12.90;;;15.20;99.90;;;;;;5100099;27;20019;-74
2021/10/19 03:54:25;;;;;;;16.00;14.32;;;15.20;99.90;;;;;;5116942;27;20048;-70
2021/10/19 03:56:51;;;;;;;14.93;12.70;;;15.20;99.90;;;;;;5135596;27;20027;-70
2021/10/19 03:59:16;;;;;;;15.20;13.10;;;15.30;99.90;;;;;;5134055;27;20580;-70
2021/10/19 04:01:42;;;;;;;16.52;14.77;;;15.20;99.90;;;;;;5135064;27;20088;-71
2021/10/19 04:04:08;;;;;;;14.35;12.82;;;15.30;99.90;;;;;;5133905;27;20087;-71
2021/10/19 04:06:33;;;;;;;15.43;13.00;;;15.30;99.90;;;;;;5133925;27;20118;-70
2021/10/19 04:08:59;;;;;;;14.65;12.82;;;15.20;99.90;;;;;;5116497;27;20434;-73
2021/10/19 04:11:25;;;;;;;14.30;12.63;;;15.20;99.90;;;;;;5135121;27;20020;-71
2021/10/19 04:13:50;;;;;;;20.83;13.43;;;15.20;99.90;;;;;;5133765;27;20024;-70
2021/10/19 04:16:16;;;;;;;14.88;13.38;;;15.20;99.90;;;;;;5134341;27;20030;-71
2021/10/19 04:18:42;;;;;;;14.90;13.32;;;15.30;99.90;;;;;;5135001;27;20032;-71
2021/10/19 04:21:07;;;;;;;13.63;12.32;;;15.30;99.90;;;;;;5133771;27;20042;-71
2021/10/19 04:23:33;;;;;;;14.55;13.05;;;15.30;99.90;;;;;;5133756;27;20481;-72
2021/10/19 04:25:58;;;;;;;12.35;11.05;;;15.30;99.90;;;;;;5116560;27;20047;-71
2021/10/19 04:28:24;;;;;;;13.82;12.43;;;15.30;99.90;;;;;;5098929;27;20486;-72
2021/10/19 04:30:51;;;;;;;14.50;13.10;;;15.30;99.90;;;;;;5133339;27;20031;-72
2021/10/19 04:33:17;;;;;;;13.10;11.80;;;15.30;99.90;;;;;;5099541;27;20448;-71
2021/10/19 04:35:43;;;;;;;14.00;12.55;;;15.30;99.90;;;;;;5133615;27;20036;-82
2021/10/19 04:38:09;;;;;;;13.80;12.50;;;15.30;99.90;;;;;;5133716;27;20019;-78
2021/10/19 04:40:35;;;;;;;12.48;11.18;;;15.30;99.90;;;;;;5133708;27;20507;-80
2021/10/19 04:43:01;;;;;;;12.80;11.30;;;15.30;99.90;;;;;;5133643;27;20050;-81
2021/10/19 04:45:27;;;;;;;11.63;10.43;;;15.40;99.90;;;;;;5134887;27;20034;-80
2021/10/19 04:47:57;;;;;;;11.95;10.48;;;15.40;99.90;;;;;;5100006;27;20026;-80
2021/10/19 04:50:23;;;;;;;12.38;11.10;;;15.40;99.90;;;;;;5099927;27;20036;-81
2021/10/19 04:52:49;;;;;;;11.32;10.23;;;15.40;99.90;;;;;;5133485;27;20049;-80
2021/10/19 04:55:14;;;;;;;10.40;9.40;;;15.40;99.90;;;;;;5133893;27;20424;-80
2021/10/19 04:57:40;;;;;;;11.25;10.02;;;15.40;99.90;;;;;;5134116;27;20031;-76
2021/10/19 05:00:06;;;;;;;12.80;10.30;;;15.40;99.90;;;;;;5116942;27;20110;-72
2021/10/19 05:02:32;;;;;;;10.90;9.77;;;15.40;99.90;;;;;;5123312;27;20028;-80
2021/10/19 05:04:57;;;;;;;10.98;9.45;;;15.40;99.90;;;;;;5102119;28;20031;-74
2021/10/19 05:07:24;;;;;;;11.05;9.88;;;15.40;99.90;;;;;;5117033;28;20034;-81
2021/10/19 05:09:49;;;;;;;10.65;9.55;;;15.40;99.90;;;;;;5136376;27;20036;-78
2021/10/19 05:12:15;;;;;;;10.90;9.75;;;15.40;99.90;;;;;;5116969;28;20160;-79
2021/10/19 05:14:41;;;;;;;10.45;9.45;;;15.40;99.90;;;;;;5099860;28;20066;-82
2021/10/19 05:17:06;;;;;;;10.70;8.60;;;15.50;99.90;;;;;;5133517;28;20557;-82
2021/10/19 05:19:32;;;;;;;10.07;9.10;;;15.50;99.90;;;;;;5133509;28;20108;-83
2021/10/19 05:21:58;;;;;;;10.35;9.35;;;15.40;99.90;;;;;;5133884;28;20031;-72
2021/10/19 05:24:23;;;;;;;11.15;9.75;;;15.50;99.90;;;;;;5132972;28;20161;-73
2021/10/19 05:26:49;;;;;;;11.18;9.18;;;15.50;99.90;;;;;;5115458;28;20122;-72
2021/10/19 05:29:15;;;;;;;10.15;9.15;;;15.50;99.90;;;;;;5115717;28;20031;-70
2021/10/19 05:31:41;;;;;;;9.75;8.82;;;15.50;99.90;;;;;;5115459;28;20026;-73
2021/10/19 05:34:06;;;;;;;10.00;8.95;;;15.50;99.90;;;;;;5098525;28;20062;-72
2021/10/19 05:36:32;;;;;;;9.85;8.45;;;15.50;99.90;;;;;;5115409;28;20015;-72
2021/10/19 05:38:57;;;;;;;9.88;8.88;;;15.50;99.90;;;;;;5115612;27;20035;-72
2021/10/19 05:41:23;;;;;;;8.95;8.15;;;15.50;99.90;;;;;;5135664;27;20050;-73
2021/10/19 05:43:48;;;;;;;9.88;8.95;;;15.50;99.90;;;;;;5137313;27;20054;-73
2021/10/19 05:46:14;;;;;;;9.00;8.15;;;15.50;99.90;;;;;;5136774;27;20146;-72
2021/10/19 05:48:40;;;;;;;9.98;8.98;;;15.60;99.90;;;;;;5102344;27;20034;-73
2021/10/19 05:51:06;;;;;;;10.27;9.18;;;15.60;99.90;;;;;;5136330;27;20026;-74
2021/10/19 05:53:31;;;;;;;9.45;8.55;;;15.60;99.90;;;;;;5119378;27;20138;-74
2021/10/19 05:55:57;;;;;;;10.10;9.10;;;15.60;99.90;;;;;;5119128;27;20058;-73
2021/10/19 05:58:23;;;;;;;11.25;8.95;;;15.60;99.90;;;;;;5136458;27;20393;-72
2021/10/19 06:00:50;;;;;;;10.80;9.70;;;15.60;99.90;;;;;;5137677;27;20083;-74
2021/10/19 06:03:16;;;;;;;10.43;9.40;;;15.60;99.90;;;;;;5136530;27;20503;-71
2021/10/19 06:05:42;;;;;;;12.50;9.90;;;15.60;99.90;;;;;;5102019;27;20027;-72
2021/10/19 06:08:07;;;;;;;9.70;8.80;;;15.70;99.90;;;;;;5118973;27;20024;-73
2021/10/19 06:10:33;;;;;;;12.50;9.88;;;15.70;99.90;;;;;;5136408;27;20032;-71
2021/10/19 06:12:59;;;;;;;13.60;10.70;;;15.70;99.90;;;;;;5101971;27;20027;-71
2021/10/19 06:15:25;;;;;;;11.40;10.18;;;15.70;99.90;;;;;;5136004;27;20057;-71
2021/10/19 06:17:51;;;;;;;11.63;10.52;;;15.70;99.90;;;;;;5137245;27;20074;-73
2021/10/19 06:20:17;;;;;;;12.40;11.07;;;15.80;99.90;;;;;;5136054;27;20115;-73
2021/10/19 06:22:43;;;;;;;13.50;11.40;;;15.80;99.90;;;;;;5137513;27;20039;-71
2021/10/19 06:25:09;;;;;;;14.38;12.48;;;15.80;99.90;;;;;;5119052;27;20114;-72
2021/10/19 06:27:34;;;;;;;11.63;10.43;;;15.80;99.90;;;;;;5136210;27;20412;-73
2021/10/19 06:30:01;;;;;;;12.57;10.63;;;15.80;99.90;;;;;;5101665;27;20039;-73
2021/10/19 06:32:27;;;;;;;11.20;10.10;;;15.80;99.90;;;;;;5118799;27;20511;-71
2021/10/19 06:34:52;;;;;;;12.90;10.85;;;15.90;99.90;;;;;;5136215;27;20035;-72
2021/10/19 06:37:18;;;;;;;12.98;11.57;;;15.80;99.90;;;;;;5135946;27;20176;-71
2021/10/19 06:39:43;;;;;;;11.55;10.35;;;15.80;99.90;;;;;;5101493;27;20023;-72
2021/10/19 06:42:09;;;;;;;12.63;10.88;;;15.90;99.90;;;;;;5137184;27;20393;-70
2021/10/19 06:44:35;;;;;;;12.45;11.15;;;15.90;99.90;;;;;;5136731;27;20071;-77
2021/10/19 06:47:00;;;;;;;11.93;10.73;;;15.90;99.90;;;;;;5151833;27;20510;-74
2021/10/19 06:49:26;;;;;;;12.40;10.80;;;15.90;99.90;;;;;;5151095;27;20043;-76
2021/10/19 06:51:51;;;;;;;11.82;10.63;;;15.90;99.90;;;;;;5144086;27;20091;-75
2021/10/19 06:54:17;;;;;;;14.75;10.73;;;15.90;99.90;;;;;;5131797;27;20035;-78
2021/10/19 06:56:43;;;;;;;11.40;10.05;;;15.90;99.90;;;;;;5124877;27;20027;-77
2021/10/19 06:59:09;;;;;;;11.27;10.18;;;15.90;99.90;;;;;;5143283;27;20023;-80
2021/10/19 07:01:35;;;;;;;11.27;10.10;;;16.00;99.90;;;;;;5110410;27;20050;-76
2021/10/19 07:04:00;;;;;;;11.77;10.57;;;16.10;99.90;;;;;;5109138;27;20080;-73
2021/10/19 07:06:26;;;;;;;11.32;10.15;;;16.10;99.90;;;;;;5124014;27;20030;-73
2021/10/19 07:08:53;;;;;;;10.85;9.85;;;16.10;99.90;;;;;;5124312;27;20435;-73
2021/10/19 07:11:19;;;;;;;11.23;10.23;;;16.10;99.90;;;;;;5142082;27;20072;-76
2021/10/19 07:13:45;;;;;;;12.88;11.48;;;16.10;99.90;;;;;;5142678;27;20027;-80
2021/10/19 07:16:10;;;;;;;11.32;10.23;;;16.10;99.90;;;;;;5141805;27;20027;-79
2021/10/19 07:18:36;;;;;;;11.73;10.63;;;16.10;99.90;;;;;;5124515;27;20498;-78
2021/10/19 07:21:02;;;;;;;10.80;9.52;;;16.10;99.90;;;;;;5126607;27;20029;-80
2021/10/19 07:23:27;;;;;;;10.60;9.55;;;16.10;99.90;;;;;;5108930;27;20035;-71
2021/10/19 07:25:53;;;;;;;11.23;10.13;;;16.10;99.90;;;;;;5118556;27;20031;-72
2021/10/19 07:28:18;;;;;;;11.35;9.80;;;16.10;99.90;;;;;;5135590;27;20031;-72
2021/10/19 07:30:45;;;;;;;10.05;9.07;;;16.20;99.90;;;;;;5135598;27;20042;-72
2021/10/19 07:33:11;;;;;;;10.88;9.88;;;16.10;99.90;;;;;;5135537;27;20007;-72
2021/10/19 07:35:37;;;;;;;11.13;10.02;;;16.10;99.90;;;;;;5117729;27;20076;-73
2021/10/19 07:38:02;;;;;;;11.82;9.63;;;16.20;99.90;;;;;;5118012;27;20500;-72
2021/10/19 07:40:28;;;;;;;10.73;9.07;;;16.20;99.90;;;;;;5118017;27;20051;-73
2021/10/19 07:42:55;;;;;;;9.85;8.95;;;16.30;99.90;;;;;;5117895;27;20028;-71
2021/10/19 07:45:23;;;;;;;11.43;9.55;;;16.30;99.90;;;;;;5118152;27;20137;-72
2021/10/19 07:47:49;;;;;;;9.43;8.52;;;16.20;99.90;;;;;;5101029;27;20027;-73
2021/10/19 07:50:19;;;;;;;9.57;8.68;;;16.20;99.90;;;;;;5117248;27;20028;-72
2021/10/19 07:52:47;;;;;;;10.38;9.38;;;16.30;99.90;;;;;;5117267;27;20015;-71
2021/10/19 07:55:13;;;;;;;9.80;8.90;;;16.30;99.90;;;;;;5134390;27;20042;-72
2021/10/19 07:57:46;;;;;;;9.77;8.77;;;16.30;99.90;;;;;;5134463;27;20023;-72
2021/10/19 08:00:16;;;;;;;9.88;8.88;;;16.30;99.90;;;;;;5134784;27;20034;-73
2021/10/19 08:02:42;;;;;;;9.45;8.50;;;16.40;99.90;;;;;;5117732;27;20020;-72
2021/10/19 08:05:12;;;;;;;7.88;7.20;;;16.50;99.90;;;;;;5117041;27;20034;-72
2021/10/19 08:07:39;;;;;;;8.60;7.78;;;16.50;99.90;;;;;;5134187;27;20047;-72
2021/10/19 08:10:05;;;;;;;7.85;7.13;;;16.60;99.90;;;;;;5142784;27;20034;-86
2021/10/19 08:12:31;;;;;;;10.50;7.30;;;16.60;99.90;;;;;;5144625;27;20023;-84
2021/10/19 08:15:00;;;;;;;7.63;6.60;;;16.60;99.90;;;;;;5139911;27;20076;-80
2021/10/19 08:17:26;;;;;;;7.05;6.40;;;16.70;99.90;;;;;;5141885;27;20381;-85
2021/10/19 08:19:53;;;;;;;8.48;7.05;;;16.70;99.90;;;;;;5141650;27;20027;-85
2021/10/19 08:22:19;;;;;;;7.00;6.40;;;16.70;99.90;;;;;;5140303;27;20050;-73
2021/10/19 08:24:44;;;;;;;7.20;6.05;;;16.70;99.90;;;;;;5140576;27;20024;-79
2021/10/19 08:27:10;;;;;;;6.68;6.00;;;16.80;99.90;;;;;;5140706;27;20461;-83
2021/10/19 08:29:35;;;;;;;6.32;5.72;;;16.80;99.90;;;;;;5106919;27;20035;-77
2021/10/19 08:32:01;;;;;;;6.10;5.07;;;16.80;99.90;;;;;;5143753;27;20106;-78
2021/10/19 08:34:27;;;;;;;4.72;4.32;;;16.80;99.90;;;;;;5141713;27;20023;-85
2021/10/19 08:36:52;;;;;;;4.90;4.50;;;16.90;99.90;;;;;;5144321;27;20026;-82
2021/10/19 08:39:18;;;;;;;4.65;4.25;;;16.90;99.90;;;;;;5126715;27;20035;-82
2021/10/19 08:41:43;;;;;;;3.78;3.47;;;16.90;99.90;;;;;;5141601;27;20027;-83
2021/10/19 08:44:09;;;;;;;3.80;3.50;;;16.90;99.90;;;;;;5141992;27;20027;-84
2021/10/19 08:46:35;;;;;;;4.43;4.03;;;16.90;99.90;;;;;;5134746;27;20087;-71
2021/10/19 08:49:00;;;;;;;4.53;4.07;;;16.90;99.90;;;;;;5116103;27;20031;-71
2021/10/19 08:51:26;;;;;;;3.92;3.42;;;16.90;99.90;;;;;;5135759;27;20065;-73
2021/10/19 08:53:51;;;;;;;3.65;3.35;;;17.00;99.90;;;;;;5100061;27;20068;-72
2021/10/19 08:56:17;;;;;;;3.65;3.30;;;17.10;99.90;;;;;;5116563;27;20151;-71
2021/10/19 08:58:44;;;;;;;3.33;3.03;;;17.20;99.90;;;;;;5134490;27;20051;-71
2021/10/19 09:01:10;;;;;;;3.58;3.28;;;17.20;99.90;;;;;;5134187;27;20546;-72
2021/10/19 09:03:49;;;;;;;3.45;3.13;;;17.20;99.90;;;;;;5115920;27;20359;-70
2021/10/19 09:06:15;;;;;;;3.00;2.80;;;17.10;99.90;;;;;;5133072;27;20027;-72
2021/10/19 09:08:48;;;;;;;4.82;3.40;;;17.20;99.90;;;;;;5133263;28;20419;-72
2021/10/19 09:11:15;;;;;;;2.73;2.53;;;17.20;99.90;;;;;;5115814;28;20059;-72
2021/10/19 09:13:54;;;;;;;3.42;3.00;;;17.20;99.90;;;;;;5115986;27;20069;-71
2021/10/19 09:16:37;;;;;;;3.03;2.83;;;17.20;99.90;;;;;;5137150;27;20023;-71
2021/10/19 09:19:02;;;;;;;3.30;3.00;;;17.20;99.90;;;;;;5120129;27;20019;-71
2021/10/19 09:21:29;;;;;;;2.72;2.53;;;17.20;99.90;;;;;;5120227;27;20034;-71
2021/10/19 09:24:13;;;;;;;5.07;3.25;;;17.20;99.90;;;;;;5137361;27;20054;-71
2021/10/19 09:26:47;;;;;;;;;;;17.20;99.90;;;;;;5120120;27;20058;-70
2021/10/19 09:29:13;;;;;;;4.32;3.92;;;17.20;99.90;;;;;;5119663;27;20266;-71
2021/10/19 09:31:39;;;;;;;4.53;4.05;;;17.20;99.90;;;;;;5120045;27;20076;-71
2021/10/19 09:34:06;;;;;;;7.57;4.70;;;17.20;99.90;;;;;;5120070;27;20027;-71
2021/10/19 09:36:33;;;;;;;5.10;4.38;;;17.20;99.90;;;;;;5138030;27;20405;-71
2021/10/19 09:38:58;;;;;;;6.35;5.28;;;17.30;99.90;;;;;;5119760;27;20027;-71
2021/10/19 09:41:24;;;;;;;6.55;5.78;;;17.30;99.90;;;;;;5136902;27;20496;-75
2021/10/19 09:43:50;;;;;;;9.65;6.05;;;17.30;99.90;;;;;;5119859;27;20035;-73
2021/10/19 09:46:15;;;;;;;7.57;6.22;;;17.30;99.90;;;;;;5120026;27;20035;-73
2021/10/19 09:48:44;;;;;;;8.93;6.53;;;17.40;99.90;;;;;;5119727;27;20045;-74
2021/10/19 09:51:10;;;;;;;10.38;6.70;;;17.40;99.90;;;;;;5136642;27;20508;-72
2021/10/19 09:53:36;;;;;;;7.65;6.40;;;17.40;99.90;;;;;;5145814;27;20369;-81
2021/10/19 09:56:02;;;;;;;9.27;6.30;;;17.40;99.90;;;;;;5145088;27;20048;-84
2021/10/19 09:58:29;;;;;;;11.95;6.40;;;17.50;99.90;;;;;;5139659;27;20015;-73
2021/10/19 10:00:55;;;;;;;8.70;6.75;;;17.50;99.90;;;;;;5126901;27;20023;-76
2021/10/19 10:03:21;;;;;;;7.95;6.50;;;17.50;99.90;;;;;;5144021;27;20027;-75
2021/10/19 10:05:47;;;;;;;10.95;7.07;;;17.60;99.90;;;;;;5142097;27;20019;-74
2021/10/19 10:08:21;;;;;;;8.15;6.00;;;17.70;99.90;;;;;;5129548;27;20030;-77
2021/10/19 10:10:51;;;;;;;;;;;17.70;99.90;;;;;;5126617;27;20031;-74
2021/10/19 10:13:16;;;;;;;7.60;5.13;;;17.80;99.90;;;;;;5144306;27;19910;-82
2021/10/19 10:15:42;;;;;;;5.80;4.88;;;17.80;99.90;;;;;;5127504;27;20114;-75
2021/10/19 10:18:10;;;;;;;5.63;4.38;;;17.90;99.90;;;;;;5128902;27;20545;-75
2021/10/19 10:20:47;;;;;;;4.78;4.05;;;17.90;99.90;;;;;;5127569;27;20030;-82
2021/10/19 10:23:19;;;;;;;5.80;4.65;;;18.00;99.90;;;;;;5144301;27;20034;-84
2021/10/19 10:25:46;;;;;;;6.40;4.35;;;18.00;99.90;;;;;;5145051;27;20031;-80
2021/10/19 10:28:33;;;;;;;5.60;3.83;;;18.10;99.90;;;;;;5127943;27;20039;-82
2021/10/19 10:31:01;;;;;;;4.18;3.45;;;18.20;99.90;;;;;;5148341;27;20043;-79
2021/10/19 10:33:36;;;;;;;6.72;2.72;;;18.10;99.90;;;;;;5151032;27;20091;-75
2021/10/19 10:36:05;;;;;;;4.90;4.07;;;18.10;99.90;;;;;;5153966;27;20066;-87
2021/10/19 10:38:31;;;;;;;3.50;3.20;;;18.10;99.90;;;;;;5142795;27;20019;-73
2021/10/19 10:41:18;;;;;;;5.20;3.53;;;18.10;99.90;;;;;;5146504;27;20062;-80
2021/10/19 10:43:44;;;;;;;4.05;3.13;;;18.10;99.90;;;;;;5150893;27;20039;-83
2021/10/19 10:46:16;;;;;;;5.07;2.78;;;18.10;99.90;;;;;;5138433;27;20034;-73
2021/10/19 10:48:42;;;;;;;2.40;2.20;;;18.10;99.90;;;;;;5137944;27;20039;-73
2021/10/19 10:51:09;;;;;;;3.63;2.78;;;18.20;99.90;;;;;;5145377;27;20051;-73
2021/10/19 10:53:43;;;;;;;3.85;2.55;;;18.20;99.90;;;;;;5149951;27;20048;-73
2021/10/19 10:56:10;;;;;;;5.82;3.63;;;18.20;99.90;;;;;;5141543;27;20585;-74
2021/10/19 10:58:38;;;;;;;5.47;3.85;;;18.20;99.90;;;;;;5137651;27;20040;-73
2021/10/19 11:01:27;;;;;;;5.75;3.50;;;18.30;99.90;;;;;;5138123;27;20071;-73
2021/10/19 11:04:13;;;;;;;5.82;3.53;;;18.20;99.90;;;;;;5137410;27;20031;-73
2021/10/19 11:06:40;;;;;;;5.85;3.10;;;18.30;99.90;;;;;;5137065;27;20043;-72
2021/10/19 11:09:14;;;;;;;3.22;2.72;;;18.30;99.90;;;;;;5135643;27;20050;-72
2021/10/19 11:11:45;;;;;;;3.58;3.03;;;18.30;99.90;;;;;;5135962;27;20075;-71
2021/10/19 11:14:15;;;;;;;3.20;2.88;;;18.40;99.90;;;;;;5135656;27;20015;-74
2021/10/19 11:16:53;;;;;;;2.67;2.45;;;18.40;99.90;;;;;;5118196;27;20031;-72
2021/10/19 11:19:27;;;;;;;2.55;2.33;;;18.50;99.90;;;;;;5118239;27;20016;-72
2021/10/19 11:21:57;;;;;;;;;;;18.50;99.90;;;;;;5118226;27;20019;-74
2021/10/19 11:24:24;;;;;;;2.78;2.28;;;18.50;99.90;;;;;;5135553;27;19905;-73
2021/10/19 11:26:50;;;;;;;5.05;2.88;;;18.50;99.90;;;;;;5100927;27;20054;-73
2021/10/19 11:29:16;;;;;;;3.88;3.47;;;18.50;99.90;;;;;;5135036;27;20500;-74
2021/10/19 11:31:42;;;;;;;5.97;4.22;;;18.50;99.90;;;;;;5135363;27;20098;-73
2021/10/19 11:34:08;;;;;;;8.45;4.57;;;18.40;99.90;;;;;;5136273;27;20051;-73
2021/10/19 11:36:35;;;;;;;5.78;5.00;;;18.30;99.90;;;;;;5135043;27;20091;-72
2021/10/19 11:39:04;;;;;;;11.48;5.55;;;18.30;99.90;;;;;;5116312;27;20015;-72
2021/10/19 11:41:31;;;;;;;8.52;5.45;;;18.20;99.90;;;;;;5134760;27;20358;-74
2021/10/19 11:44:02;;;;;;;14.20;6.38;;;18.10;99.90;;;;;;5117698;27;20080;-74
2021/10/19 11:46:31;;;;;;;10.27;6.35;;;18.10;99.90;;;;;;5136174;27;20106;-74
2021/10/19 11:49:01;;;;;;;12.60;7.07;;;18.10;99.90;;;;;;5134683;27;20058;-74
2021/10/19 11:51:27;;;;;;;18.33;6.68;;;18.10;99.90;;;;;;5117660;27;20026;-73
2021/10/19 11:53:59;;;;;;;15.18;5.80;;;18.10;99.90;;;;;;5134660;27;20022;-73
2021/10/19 11:56:25;;;;;;;10.38;6.50;;;18.00;99.90;;;;;;5134630;27;20023;-73
2021/10/19 11:59:00;;;;;;;22.88;7.25;;;18.00;99.90;;;;;;5117432;27;20011;-71
2021/10/19 12:01:26;;;;;;;15.23;7.85;;;18.00;99.90;;;;;;5117467;27;20050;-73
2021/10/19 12:03:55;;;;;;;7.55;5.60;;;18.00;99.90;;;;;;5117695;27;20055;-72
2021/10/19 12:06:27;;;;;;;11.82;5.80;;;18.10;99.90;;;;;;5134474;27;20118;-71
2021/10/19 12:08:53;;;;;;;14.77;6.45;;;18.20;99.90;;;;;;5134435;27;20046;-71
2021/10/19 12:11:25;;;;;;;12.60;6.22;;;18.30;99.90;;;;;;5117298;27;20400;-73
2021/10/19 12:13:55;;;;;;;12.57;6.75;;;18.40;99.90;;;;;;5133851;27;20564;-70
2021/10/19 12:16:25;;;;;;;13.38;7.03;;;18.50;99.90;;;;;;5134204;27;20019;-71
2021/10/19 12:18:50;;;;;;;16.15;6.28;;;18.60;99.90;;;;;;5134041;27;20480;-73
2021/10/19 12:21:16;;;;;;;17.15;7.32;;;18.70;99.90;;;;;;5134628;27;20042;-71
2021/10/19 12:23:52;;;;;;;15.00;7.25;;;18.80;99.90;;;;;;5135236;27;20031;-71
2021/10/19 12:26:20;;;;;;;11.45;6.90;;;18.90;99.90;;;;;;5116451;27;20045;-72
2021/10/19 12:28:51;;;;;;;17.38;6.97;;;19.00;99.90;;;;;;5133985;27;20028;-72
2021/10/19 12:31:18;;;;;;;15.77;6.43;;;19.00;99.90;;;;;;5133919;27;20497;-72
2021/10/19 12:33:44;;;;;;;14.48;7.13;;;19.10;99.90;;;;;;5133772;27;20415;-73